PTSPF SBSI-SBRB
Flight info
| Callsign | PTSPF |
|---|---|
| Flight time | 2h 5m |
| Altitude | 36000 |
| Route | PALEP UL540 ISLIB UZ76 ESMAL |
| Aircraft | E145/L-L/2000 |
Departure
| Time | 2026-04-22 16:06 |
|---|---|
| Airport | Presidente João Batista Figueiredo Airport (SBSI) |
Arrival
| Time | 2026-04-22 18:12 |
|---|---|
| Airport | Rio Branco-Plácido de Castro International Airport (SBRB) |
| Time | Latitude | Longitude | Altitude | Speed | Heading |
|---|---|---|---|---|---|
| 2026-04-22 15:38 | -11.87812 | -55.58222 | 1228 ft | 0 kts | 105° |
| 2026-04-22 15:55 | -11.87812 | -55.58221 | 1228 ft | 0 kts | 105° |
| 2026-04-22 15:56 | -11.87812 | -55.58222 | 1228 ft | 0 kts | 105° |
| 2026-04-22 15:56 | -11.87806 | -55.58235 | 1228 ft | 2 kts | 106° |
| 2026-04-22 15:56 | -11.87803 | -55.58250 | 1228 ft | 2 kts | 104° |
| 2026-04-22 15:56 | -11.87799 | -55.58265 | 1228 ft | 2 kts | 108° |
| 2026-04-22 15:57 | -11.87789 | -55.58275 | 1228 ft | 2 kts | 166° |
| 2026-04-22 15:57 | -11.87779 | -55.58275 | 1228 ft | 1 kts | 195° |
| 2026-04-22 15:57 | -11.87778 | -55.58275 | 1228 ft | 0 kts | 195° |
| 2026-04-22 15:59 | -11.87780 | -55.58275 | 1228 ft | 0 kts | 194° |
| 2026-04-22 15:59 | -11.87791 | -55.58277 | 1228 ft | 2 kts | 189° |
| 2026-04-22 16:00 | -11.87815 | -55.58281 | 1228 ft | 5 kts | 191° |
| 2026-04-22 16:00 | -11.87839 | -55.58292 | 1228 ft | 1 kts | 229° |
| 2026-04-22 16:00 | -11.87845 | -55.58300 | 1228 ft | 1 kts | 252° |
| 2026-04-22 16:00 | -11.87840 | -55.58343 | 1228 ft | 10 kts | 284° |
| 2026-04-22 16:01 | -11.87821 | -55.58418 | 1229 ft | 8 kts | 284° |
| 2026-04-22 16:01 | -11.87852 | -55.58458 | 1229 ft | 8 kts | 200° |
| 2026-04-22 16:01 | -11.87909 | -55.58473 | 1229 ft | 8 kts | 194° |
| 2026-04-22 16:01 | -11.87971 | -55.58488 | 1230 ft | 9 kts | 194° |
| 2026-04-22 16:02 | -11.88036 | -55.58506 | 1230 ft | 9 kts | 194° |
| 2026-04-22 16:02 | -11.88104 | -55.58525 | 1230 ft | 10 kts | 196° |
| 2026-04-22 16:02 | -11.88180 | -55.58546 | 1230 ft | 11 kts | 195° |
| 2026-04-22 16:02 | -11.88263 | -55.58570 | 1230 ft | 13 kts | 195° |
| 2026-04-22 16:03 | -11.88363 | -55.58596 | 1230 ft | 16 kts | 194° |
| 2026-04-22 16:03 | -11.88475 | -55.58625 | 1231 ft | 16 kts | 194° |
| 2026-04-22 16:03 | -11.88587 | -55.58656 | 1233 ft | 16 kts | 195° |
| 2026-04-22 16:03 | -11.88703 | -55.58687 | 1233 ft | 17 kts | 194° |
| 2026-04-22 16:04 | -11.88824 | -55.58718 | 1233 ft | 17 kts | 194° |
| 2026-04-22 16:04 | -11.88936 | -55.58748 | 1233 ft | 16 kts | 195° |
| 2026-04-22 16:04 | -11.89043 | -55.58776 | 1233 ft | 15 kts | 195° |
| 2026-04-22 16:04 | -11.89139 | -55.58799 | 1233 ft | 11 kts | 178° |
| 2026-04-22 16:05 | -11.89193 | -55.58789 | 1233 ft | 6 kts | 227° |
| 2026-04-22 16:05 | -11.89188 | -55.58810 | 1233 ft | 1 kts | 339° |
| 2026-04-22 16:05 | -11.89186 | -55.58810 | 1233 ft | 0 kts | 3° |
| 2026-04-22 16:05 | -11.89152 | -55.58805 | 1233 ft | 24 kts | 11° |
| 2026-04-22 16:06 | -11.88754 | -55.58700 | 1233 ft | 93 kts | 14° |
| 2026-04-22 16:06 | -11.87912 | -55.58476 | 1231 ft | 155 kts | 16° |
| 2026-04-22 16:06 | -11.86762 | -55.58244 | 1639 ft | 179 kts | 6° |
| 2026-04-22 16:06 | -11.85567 | -55.58482 | 2546 ft | 177 kts | 336° |
| 2026-04-22 16:07 | -11.84537 | -55.59138 | 3247 ft | 184 kts | 319° |
| 2026-04-22 16:07 | -11.83475 | -55.60146 | 3289 ft | 237 kts | 313° |
| 2026-04-22 16:07 | -11.82531 | -55.61662 | 3518 ft | 266 kts | 281° |
| 2026-04-22 16:07 | -11.82166 | -55.63534 | 4351 ft | 271 kts | 285° |
| 2026-04-22 16:08 | -11.81493 | -55.65305 | 5253 ft | 273 kts | 292° |
| 2026-04-22 16:08 | -11.80665 | -55.67077 | 6025 ft | 279 kts | 295° |
| 2026-04-22 16:08 | -11.80141 | -55.68970 | 6729 ft | 280 kts | 266° |
| 2026-04-22 16:08 | -11.80408 | -55.70950 | 7480 ft | 283 kts | 258° |
| 2026-04-22 16:09 | -11.80742 | -55.72934 | 8189 ft | 288 kts | 257° |
| 2026-04-22 16:09 | -11.81096 | -55.74935 | 8875 ft | 293 kts | 257° |
| 2026-04-22 16:09 | -11.81474 | -55.77016 | 9566 ft | 298 kts | 257° |
| 2026-04-22 16:09 | -11.81854 | -55.79095 | 10224 ft | 304 kts | 257° |
| 2026-04-22 16:10 | -11.82252 | -55.81267 | 10723 ft | 315 kts | 258° |
| 2026-04-22 16:10 | -11.82660 | -55.83491 | 11152 ft | 328 kts | 258° |
| 2026-04-22 16:10 | -11.83085 | -55.85813 | 11622 ft | 339 kts | 258° |
| 2026-04-22 16:10 | -11.83529 | -55.88231 | 12080 ft | 351 kts | 259° |
| 2026-04-22 16:11 | -11.83977 | -55.90680 | 12656 ft | 357 kts | 259° |
| 2026-04-22 16:11 | -11.84435 | -55.93183 | 13375 ft | 358 kts | 259° |
| 2026-04-22 16:11 | -11.84890 | -55.95671 | 14048 ft | 360 kts | 260° |
| 2026-04-22 16:11 | -11.85349 | -55.98184 | 14675 ft | 363 kts | 260° |
| 2026-04-22 16:12 | -11.85816 | -56.00736 | 15301 ft | 365 kts | 260° |
| 2026-04-22 16:12 | -11.86277 | -56.03262 | 15908 ft | 368 kts | 261° |
| 2026-04-22 16:12 | -11.86747 | -56.05835 | 16507 ft | 370 kts | 261° |
| 2026-04-22 16:12 | -11.87217 | -56.08410 | 17093 ft | 372 kts | 261° |
| 2026-04-22 16:13 | -11.87692 | -56.11014 | 17667 ft | 374 kts | 261° |
| 2026-04-22 16:13 | -11.88164 | -56.13608 | 18252 ft | 375 kts | 261° |
| 2026-04-22 16:13 | -11.88640 | -56.16217 | 19027 ft | 369 kts | 261° |
| 2026-04-22 16:13 | -11.89145 | -56.18764 | 19740 ft | 367 kts | 255° |
| 2026-04-22 16:14 | -11.90380 | -56.21044 | 20322 ft | 369 kts | 232° |
| 2026-04-22 16:14 | -11.92009 | -56.23030 | 20918 ft | 368 kts | 230° |
| 2026-04-22 16:14 | -11.93665 | -56.24987 | 21506 ft | 366 kts | 230° |
| 2026-04-22 16:14 | -11.95342 | -56.26950 | 22095 ft | 364 kts | 230° |
| 2026-04-22 16:15 | -11.97000 | -56.28883 | 22661 ft | 362 kts | 230° |
| 2026-04-22 16:15 | -11.98642 | -56.30795 | 23207 ft | 361 kts | 230° |
| 2026-04-22 16:15 | -12.00276 | -56.32697 | 23744 ft | 359 kts | 230° |
| 2026-04-22 16:15 | -12.01925 | -56.34619 | 24277 ft | 357 kts | 231° |
| 2026-04-22 16:16 | -12.03539 | -56.36499 | 24783 ft | 355 kts | 231° |
| 2026-04-22 16:16 | -12.05164 | -56.38392 | 25289 ft | 353 kts | 231° |
| 2026-04-22 16:16 | -12.06771 | -56.40264 | 25772 ft | 351 kts | 231° |
| 2026-04-22 16:16 | -12.08364 | -56.42122 | 26238 ft | 350 kts | 231° |
| 2026-04-22 16:17 | -12.09955 | -56.43976 | 26691 ft | 348 kts | 231° |
| 2026-04-22 16:17 | -12.11553 | -56.45839 | 27138 ft | 346 kts | 231° |
| 2026-04-22 16:17 | -12.13130 | -56.47679 | 27560 ft | 345 kts | 231° |
| 2026-04-22 16:17 | -12.14708 | -56.49519 | 27969 ft | 343 kts | 231° |
| 2026-04-22 16:18 | -12.16265 | -56.51335 | 28370 ft | 341 kts | 231° |
| 2026-04-22 16:18 | -12.17820 | -56.53149 | 28761 ft | 340 kts | 231° |
| 2026-04-22 16:18 | -12.19362 | -56.54950 | 29134 ft | 339 kts | 231° |
| 2026-04-22 16:18 | -12.20912 | -56.56758 | 29497 ft | 337 kts | 231° |
| 2026-04-22 16:19 | -12.22448 | -56.58551 | 29847 ft | 336 kts | 231° |
| 2026-04-22 16:19 | -12.23994 | -56.60357 | 30191 ft | 335 kts | 231° |
| 2026-04-22 16:19 | -12.25523 | -56.62143 | 30521 ft | 334 kts | 231° |
| 2026-04-22 16:19 | -12.27032 | -56.63906 | 30845 ft | 332 kts | 231° |
| 2026-04-22 16:20 | -12.28553 | -56.65682 | 31157 ft | 331 kts | 231° |
| 2026-04-22 16:20 | -12.30055 | -56.67438 | 31470 ft | 330 kts | 231° |
| 2026-04-22 16:20 | -12.31576 | -56.69216 | 31770 ft | 329 kts | 231° |
| 2026-04-22 16:20 | -12.33072 | -56.70964 | 32062 ft | 328 kts | 231° |
| 2026-04-22 16:21 | -12.34560 | -56.72705 | 32342 ft | 327 kts | 231° |
| 2026-04-22 16:21 | -12.36046 | -56.74442 | 32610 ft | 326 kts | 231° |
| 2026-04-22 16:21 | -12.37548 | -56.76199 | 32875 ft | 325 kts | 231° |
| 2026-04-22 16:21 | -12.39032 | -56.77935 | 33132 ft | 324 kts | 231° |
| 2026-04-22 16:22 | -12.40935 | -56.81895 | 33511 ft | 315 kts | 274° |
| 2026-04-22 16:22 | -12.40653 | -56.84103 | 33701 ft | 314 kts | 280° |
| 2026-04-22 16:22 | -12.40278 | -56.86299 | 33914 ft | 314 kts | 281° |
| 2026-04-22 16:23 | -12.39427 | -56.90662 | 34357 ft | 312 kts | 282° |
| 2026-04-22 16:23 | -12.38982 | -56.92849 | 34577 ft | 311 kts | 283° |
| 2026-04-22 16:23 | -12.38540 | -56.95009 | 34782 ft | 311 kts | 283° |
| 2026-04-22 16:24 | -12.38096 | -56.97172 | 34980 ft | 310 kts | 283° |
| 2026-04-22 16:24 | -12.37213 | -57.01457 | 35294 ft | 307 kts | 283° |
| 2026-04-22 16:25 | -12.36337 | -57.05703 | 35407 ft | 307 kts | 283° |
| 2026-04-22 16:25 | -12.35458 | -57.09961 | 35672 ft | 302 kts | 283° |
| 2026-04-22 16:25 | -12.35024 | -57.12062 | 35879 ft | 296 kts | 283° |
| 2026-04-22 16:26 | -12.34604 | -57.14093 | 35952 ft | 296 kts | 283° |
| 2026-04-22 16:26 | -12.34179 | -57.16149 | 35965 ft | 297 kts | 283° |
| 2026-04-22 16:26 | -12.33752 | -57.18211 | 35966 ft | 298 kts | 283° |
| 2026-04-22 16:26 | -12.33323 | -57.20284 | 35967 ft | 299 kts | 283° |
| 2026-04-22 16:27 | -12.32472 | -57.24398 | 35967 ft | 303 kts | 283° |
| 2026-04-22 16:27 | -12.31592 | -57.28643 | 35967 ft | 306 kts | 283° |
| 2026-04-22 16:28 | -12.30706 | -57.32914 | 35966 ft | 309 kts | 283° |
| 2026-04-22 16:28 | -12.29811 | -57.37226 | 35967 ft | 313 kts | 283° |
| 2026-04-22 16:29 | -12.28898 | -57.41623 | 35967 ft | 317 kts | 283° |
| 2026-04-22 16:29 | -12.27981 | -57.46036 | 35967 ft | 321 kts | 283° |
| 2026-04-22 16:30 | -12.27045 | -57.50532 | 35966 ft | 325 kts | 283° |
| 2026-04-22 16:30 | -12.26100 | -57.55071 | 35966 ft | 329 kts | 283° |
| 2026-04-22 16:31 | -12.25145 | -57.59653 | 35966 ft | 334 kts | 283° |
| 2026-04-22 16:31 | -12.24172 | -57.64319 | 35966 ft | 338 kts | 283° |
| 2026-04-22 16:32 | -12.23181 | -57.69062 | 35969 ft | 342 kts | 283° |
| 2026-04-22 16:32 | -12.22184 | -57.73836 | 35969 ft | 347 kts | 283° |
| 2026-04-22 16:33 | -12.21167 | -57.78697 | 35969 ft | 352 kts | 283° |
| 2026-04-22 16:33 | -12.20133 | -57.83634 | 35969 ft | 357 kts | 283° |
| 2026-04-22 16:34 | -12.19093 | -57.88594 | 35968 ft | 361 kts | 283° |
| 2026-04-22 16:34 | -12.18036 | -57.93636 | 35968 ft | 366 kts | 283° |
| 2026-04-22 16:35 | -12.16959 | -57.98765 | 35968 ft | 371 kts | 283° |
| 2026-04-22 16:35 | -12.15870 | -58.03946 | 35967 ft | 375 kts | 283° |
| 2026-04-22 16:36 | -12.14768 | -58.09185 | 35967 ft | 379 kts | 283° |
| 2026-04-22 16:36 | -12.13653 | -58.14475 | 35967 ft | 383 kts | 283° |
| 2026-04-22 16:37 | -12.12528 | -58.19801 | 36009 ft | 386 kts | 283° |
| 2026-04-22 16:37 | -12.11397 | -58.25152 | 36020 ft | 390 kts | 283° |
| 2026-04-22 16:38 | -12.10245 | -58.30600 | 36020 ft | 393 kts | 283° |
| 2026-04-22 16:38 | -12.09088 | -58.36062 | 36019 ft | 397 kts | 283° |
| 2026-04-22 16:39 | -12.07912 | -58.41608 | 36019 ft | 400 kts | 283° |
| 2026-04-22 16:39 | -12.06738 | -58.47145 | 36019 ft | 403 kts | 283° |
| 2026-04-22 16:40 | -12.05544 | -58.52765 | 36018 ft | 406 kts | 283° |
| 2026-04-22 16:41 | -12.03743 | -58.61234 | 36018 ft | 410 kts | 283° |
| 2026-04-22 16:41 | -12.02519 | -58.66976 | 36021 ft | 413 kts | 283° |
| 2026-04-22 16:42 | -12.01296 | -58.72712 | 36021 ft | 415 kts | 283° |
| 2026-04-22 16:42 | -12.00068 | -58.78467 | 36021 ft | 418 kts | 283° |
| 2026-04-22 16:43 | -11.98814 | -58.84341 | 36020 ft | 420 kts | 283° |
| 2026-04-22 16:43 | -11.97568 | -58.90166 | 36020 ft | 423 kts | 283° |
| 2026-04-22 16:44 | -11.96304 | -58.96072 | 36019 ft | 425 kts | 283° |
| 2026-04-22 16:44 | -11.95048 | -59.01931 | 36019 ft | 427 kts | 283° |
| 2026-04-22 16:45 | -11.93778 | -59.07847 | 36016 ft | 425 kts | 283° |
| 2026-04-22 16:45 | -11.92546 | -59.13760 | 36016 ft | 421 kts | 282° |
| 2026-04-22 16:46 | -11.91424 | -59.19656 | 36016 ft | 418 kts | 282° |
| 2026-04-22 16:46 | -11.90317 | -59.25484 | 36015 ft | 415 kts | 282° |
| 2026-04-22 16:47 | -11.89219 | -59.31261 | 36019 ft | 413 kts | 282° |
| 2026-04-22 16:47 | -11.88114 | -59.37065 | 36019 ft | 410 kts | 282° |
| 2026-04-22 16:48 | -11.87026 | -59.42777 | 36019 ft | 408 kts | 282° |
| 2026-04-22 16:48 | -11.85947 | -59.48430 | 36018 ft | 406 kts | 282° |
| 2026-04-22 16:49 | -11.84873 | -59.54057 | 36018 ft | 404 kts | 282° |
| 2026-04-22 16:49 | -11.83801 | -59.59662 | 36018 ft | 403 kts | 282° |
| 2026-04-22 16:50 | -11.82727 | -59.65274 | 36018 ft | 401 kts | 282° |
| 2026-04-22 16:50 | -11.81661 | -59.70837 | 36021 ft | 400 kts | 282° |
| 2026-04-22 16:51 | -11.80598 | -59.76378 | 36021 ft | 398 kts | 282° |
| 2026-04-22 16:51 | -11.79532 | -59.81932 | 36021 ft | 397 kts | 282° |
| 2026-04-22 16:52 | -11.78473 | -59.87437 | 36023 ft | 398 kts | 282° |
| 2026-04-22 16:52 | -11.77399 | -59.93021 | 36023 ft | 402 kts | 282° |
| 2026-04-22 16:53 | -11.76313 | -59.98654 | 36023 ft | 406 kts | 282° |
| 2026-04-22 16:53 | -11.75211 | -60.04359 | 36022 ft | 410 kts | 282° |
| 2026-04-22 16:54 | -11.74102 | -60.10098 | 36022 ft | 413 kts | 282° |
| 2026-04-22 16:54 | -11.72977 | -60.15912 | 36022 ft | 416 kts | 282° |
| 2026-04-22 16:55 | -11.71852 | -60.21720 | 36021 ft | 419 kts | 282° |
| 2026-04-22 16:55 | -11.70711 | -60.27605 | 36021 ft | 422 kts | 282° |
| 2026-04-22 16:56 | -11.69570 | -60.33483 | 36021 ft | 425 kts | 282° |
| 2026-04-22 16:56 | -11.68426 | -60.39368 | 36020 ft | 427 kts | 282° |
| 2026-04-22 16:57 | -11.67266 | -60.45331 | 36020 ft | 429 kts | 282° |
| 2026-04-22 16:57 | -11.66099 | -60.51322 | 36020 ft | 431 kts | 282° |
| 2026-04-22 16:58 | -11.65115 | -60.56368 | 36019 ft | 432 kts | 282° |
| 2026-04-22 16:58 | -11.63732 | -60.63449 | 36019 ft | 434 kts | 282° |
| 2026-04-22 16:59 | -11.62539 | -60.69554 | 36022 ft | 435 kts | 283° |
| 2026-04-22 16:59 | -11.61346 | -60.75651 | 36022 ft | 437 kts | 283° |
| 2026-04-22 17:00 | -11.60143 | -60.81790 | 36021 ft | 438 kts | 283° |
| 2026-04-22 17:00 | -11.58341 | -60.90973 | 36021 ft | 439 kts | 283° |
| 2026-04-22 17:01 | -11.57137 | -60.97100 | 36021 ft | 440 kts | 282° |
| 2026-04-22 17:01 | -11.55916 | -61.03302 | 36020 ft | 440 kts | 282° |
| 2026-04-22 17:02 | -11.54693 | -61.09515 | 36020 ft | 441 kts | 282° |
| 2026-04-22 17:02 | -11.53481 | -61.15659 | 36020 ft | 441 kts | 282° |
| 2026-04-22 17:03 | -11.52269 | -61.21798 | 36019 ft | 442 kts | 282° |
| 2026-04-22 17:03 | -11.51056 | -61.27939 | 36019 ft | 442 kts | 282° |
| 2026-04-22 17:04 | -11.49739 | -61.34083 | 36019 ft | 443 kts | 283° |
| 2026-04-22 17:04 | -11.48383 | -61.40290 | 36019 ft | 443 kts | 283° |
| 2026-04-22 17:05 | -11.47026 | -61.46484 | 36018 ft | 443 kts | 283° |
| 2026-04-22 17:05 | -11.45687 | -61.52594 | 36018 ft | 443 kts | 283° |
| 2026-04-22 17:06 | -11.44323 | -61.58812 | 36018 ft | 443 kts | 283° |
| 2026-04-22 17:06 | -11.42985 | -61.64900 | 36018 ft | 443 kts | 283° |
| 2026-04-22 17:07 | -11.41629 | -61.71066 | 36021 ft | 444 kts | 283° |
| 2026-04-22 17:07 | -11.40270 | -61.77239 | 35943 ft | 446 kts | 283° |
| 2026-04-22 17:08 | -11.38904 | -61.83441 | 35939 ft | 445 kts | 283° |
| 2026-04-22 17:08 | -11.37554 | -61.89561 | 35937 ft | 441 kts | 283° |
| 2026-04-22 17:09 | -11.36213 | -61.95633 | 35937 ft | 438 kts | 283° |
| 2026-04-22 17:09 | -11.34876 | -62.01681 | 35937 ft | 435 kts | 283° |
| 2026-04-22 17:10 | -11.33544 | -62.07691 | 35937 ft | 432 kts | 283° |
| 2026-04-22 17:10 | -11.32223 | -62.13650 | 35937 ft | 430 kts | 283° |
| 2026-04-22 17:11 | -11.30903 | -62.19597 | 35937 ft | 427 kts | 283° |
| 2026-04-22 17:11 | -11.29569 | -62.25599 | 35936 ft | 426 kts | 283° |
| 2026-04-22 17:12 | -11.28245 | -62.31554 | 35936 ft | 424 kts | 283° |
| 2026-04-22 17:12 | -11.26914 | -62.37534 | 35936 ft | 422 kts | 283° |
| 2026-04-22 17:13 | -11.25611 | -62.43383 | 35936 ft | 421 kts | 283° |
| 2026-04-22 17:13 | -11.24307 | -62.49230 | 35936 ft | 420 kts | 283° |
| 2026-04-22 17:14 | -11.23007 | -62.55057 | 35936 ft | 419 kts | 283° |
| 2026-04-22 17:14 | -11.21709 | -62.60864 | 35936 ft | 417 kts | 283° |
| 2026-04-22 17:15 | -11.20413 | -62.66661 | 35938 ft | 416 kts | 284° |
| 2026-04-22 17:15 | -11.19117 | -62.72448 | 35938 ft | 416 kts | 284° |
| 2026-04-22 17:16 | -11.17835 | -62.78171 | 35938 ft | 415 kts | 284° |
| 2026-04-22 17:16 | -11.16531 | -62.83984 | 35938 ft | 415 kts | 284° |
| 2026-04-22 17:17 | -11.15241 | -62.89736 | 35939 ft | 414 kts | 284° |
| 2026-04-22 17:17 | -11.13967 | -62.95410 | 35939 ft | 413 kts | 284° |
| 2026-04-22 17:18 | -11.12688 | -63.01101 | 35938 ft | 412 kts | 284° |
| 2026-04-22 17:18 | -11.11417 | -63.06749 | 35937 ft | 412 kts | 284° |
| 2026-04-22 17:19 | -11.08849 | -63.18144 | 35935 ft | 409 kts | 285° |
| 2026-04-22 17:20 | -11.06302 | -63.29425 | 35934 ft | 407 kts | 285° |
| 2026-04-22 17:21 | -11.04400 | -63.37841 | 35934 ft | 406 kts | 285° |
| 2026-04-22 17:22 | -11.02500 | -63.46231 | 35933 ft | 405 kts | 285° |
| 2026-04-22 17:23 | -11.00597 | -63.54625 | 35933 ft | 404 kts | 284° |
| 2026-04-22 17:23 | -10.98697 | -63.62999 | 35935 ft | 403 kts | 284° |
| 2026-04-22 17:24 | -10.97446 | -63.68501 | 35947 ft | 402 kts | 284° |
| 2026-04-22 17:24 | -10.96175 | -63.74091 | 35953 ft | 403 kts | 284° |
| 2026-04-22 17:25 | -10.94901 | -63.79689 | 35958 ft | 407 kts | 284° |
| 2026-04-22 17:25 | -10.93610 | -63.85355 | 35959 ft | 411 kts | 284° |
| 2026-04-22 17:26 | -10.92300 | -63.91103 | 35964 ft | 415 kts | 284° |
| 2026-04-22 17:26 | -10.90982 | -63.96877 | 35970 ft | 419 kts | 284° |
| 2026-04-22 17:27 | -10.89656 | -64.02682 | 35981 ft | 422 kts | 284° |
| 2026-04-22 17:27 | -10.88316 | -64.08540 | 35992 ft | 426 kts | 284° |
| 2026-04-22 17:28 | -10.86964 | -64.14453 | 35993 ft | 429 kts | 283° |
| 2026-04-22 17:28 | -10.85608 | -64.20369 | 35991 ft | 432 kts | 283° |
| 2026-04-22 17:29 | -10.84227 | -64.26394 | 35991 ft | 434 kts | 283° |
| 2026-04-22 17:29 | -10.82851 | -64.32389 | 35993 ft | 436 kts | 283° |
| 2026-04-22 17:30 | -10.81478 | -64.38367 | 35991 ft | 433 kts | 283° |
| 2026-04-22 17:30 | -10.80103 | -64.44347 | 35991 ft | 431 kts | 283° |
| 2026-04-22 17:31 | -10.78734 | -64.50295 | 35991 ft | 429 kts | 283° |
| 2026-04-22 17:31 | -10.77374 | -64.56198 | 35991 ft | 427 kts | 284° |
| 2026-04-22 17:32 | -10.76024 | -64.62055 | 35991 ft | 426 kts | 284° |
| 2026-04-22 17:32 | -10.74662 | -64.67954 | 35994 ft | 424 kts | 284° |
| 2026-04-22 17:33 | -10.73314 | -64.73793 | 35994 ft | 423 kts | 284° |
| 2026-04-22 17:33 | -10.71958 | -64.79660 | 35993 ft | 422 kts | 284° |
| 2026-04-22 17:34 | -10.70617 | -64.85456 | 35995 ft | 421 kts | 284° |
| 2026-04-22 17:34 | -10.69281 | -64.91228 | 35995 ft | 420 kts | 284° |
| 2026-04-22 17:35 | -10.67948 | -64.96977 | 35995 ft | 418 kts | 284° |
| 2026-04-22 17:35 | -10.66623 | -65.02691 | 35994 ft | 417 kts | 284° |
| 2026-04-22 17:36 | -10.65300 | -65.08382 | 35992 ft | 415 kts | 284° |
| 2026-04-22 17:36 | -10.63968 | -65.14114 | 35992 ft | 413 kts | 285° |
| 2026-04-22 17:37 | -10.62645 | -65.19802 | 35992 ft | 412 kts | 285° |
| 2026-04-22 17:37 | -10.61327 | -65.25458 | 35970 ft | 411 kts | 284° |
| 2026-04-22 17:38 | -10.60022 | -65.31064 | 35964 ft | 410 kts | 284° |
| 2026-04-22 17:38 | -10.58704 | -65.36713 | 35963 ft | 409 kts | 284° |
| 2026-04-22 17:39 | -10.57350 | -65.42281 | 35961 ft | 407 kts | 288° |
| 2026-04-22 17:40 | -10.54992 | -65.50542 | 35962 ft | 406 kts | 287° |
| 2026-04-22 17:40 | -10.53418 | -65.56049 | 35962 ft | 405 kts | 287° |
| 2026-04-22 17:41 | -10.51850 | -65.61529 | 35962 ft | 404 kts | 287° |
| 2026-04-22 17:41 | -10.50278 | -65.67019 | 35967 ft | 403 kts | 287° |
| 2026-04-22 17:42 | -10.48714 | -65.72477 | 35967 ft | 403 kts | 287° |
| 2026-04-22 17:42 | -10.47154 | -65.77921 | 35968 ft | 402 kts | 288° |
| 2026-04-22 17:43 | -10.45589 | -65.83373 | 35973 ft | 402 kts | 288° |
| 2026-04-22 17:43 | -10.44021 | -65.88836 | 35979 ft | 402 kts | 288° |
| 2026-04-22 17:44 | -10.42457 | -65.94279 | 35985 ft | 401 kts | 288° |
| 2026-04-22 17:44 | -10.40902 | -65.99688 | 35990 ft | 401 kts | 288° |
| 2026-04-22 17:45 | -10.39336 | -66.05128 | 35992 ft | 400 kts | 288° |
| 2026-04-22 17:45 | -10.37771 | -66.10566 | 35992 ft | 400 kts | 288° |
| 2026-04-22 17:46 | -10.36210 | -66.15985 | 35991 ft | 400 kts | 288° |
| 2026-04-22 17:46 | -10.34651 | -66.21390 | 35991 ft | 400 kts | 288° |
| 2026-04-22 17:47 | -10.33081 | -66.26833 | 35990 ft | 399 kts | 288° |
| 2026-04-22 17:47 | -10.31533 | -66.32197 | 35988 ft | 395 kts | 288° |
| 2026-04-22 17:48 | -10.30254 | -66.36622 | 35988 ft | 391 kts | 288° |
| 2026-04-22 17:48 | -10.28473 | -66.42786 | 35987 ft | 387 kts | 288° |
| 2026-04-22 17:48 | -10.27717 | -66.45398 | 35722 ft | 382 kts | 288° |
| 2026-04-22 17:49 | -10.26984 | -66.47935 | 35221 ft | 375 kts | 288° |
| 2026-04-22 17:49 | -10.26248 | -66.50475 | 34727 ft | 369 kts | 288° |
| 2026-04-22 17:49 | -10.25536 | -66.52937 | 34243 ft | 364 kts | 288° |
| 2026-04-22 17:49 | -10.24827 | -66.55385 | 33754 ft | 359 kts | 288° |
| 2026-04-22 17:50 | -10.24135 | -66.57780 | 33269 ft | 355 kts | 288° |
| 2026-04-22 17:50 | -10.23444 | -66.60165 | 32803 ft | 350 kts | 288° |
| 2026-04-22 17:50 | -10.22755 | -66.62541 | 32340 ft | 348 kts | 288° |
| 2026-04-22 17:50 | -10.22070 | -66.64902 | 31878 ft | 347 kts | 288° |
| 2026-04-22 17:51 | -10.21391 | -66.67243 | 31447 ft | 344 kts | 289° |
| 2026-04-22 17:51 | -10.20722 | -66.69550 | 31022 ft | 342 kts | 289° |
| 2026-04-22 17:51 | -10.20046 | -66.71881 | 30590 ft | 341 kts | 289° |
| 2026-04-22 17:51 | -10.19385 | -66.74154 | 30166 ft | 339 kts | 289° |
| 2026-04-22 17:52 | -10.18721 | -66.76442 | 29738 ft | 338 kts | 289° |
| 2026-04-22 17:52 | -10.18052 | -66.78745 | 29306 ft | 337 kts | 289° |
| 2026-04-22 17:52 | -10.17398 | -66.80998 | 28881 ft | 336 kts | 289° |
| 2026-04-22 17:52 | -10.16737 | -66.83270 | 28453 ft | 335 kts | 289° |
| 2026-04-22 17:53 | -10.16080 | -66.85531 | 28025 ft | 334 kts | 289° |
| 2026-04-22 17:53 | -10.15426 | -66.87780 | 27564 ft | 335 kts | 289° |
| 2026-04-22 17:53 | -10.14768 | -66.90043 | 27089 ft | 336 kts | 289° |
| 2026-04-22 17:53 | -10.14411 | -66.92390 | 26617 ft | 340 kts | 278° |
| 2026-04-22 17:54 | -10.14212 | -66.94792 | 26143 ft | 341 kts | 278° |
| 2026-04-22 17:54 | -10.14028 | -66.97198 | 25666 ft | 342 kts | 277° |
| 2026-04-22 17:54 | -10.13851 | -66.99592 | 25193 ft | 343 kts | 277° |
| 2026-04-22 17:54 | -10.13677 | -67.01997 | 24719 ft | 343 kts | 277° |
| 2026-04-22 17:55 | -10.13503 | -67.04392 | 24248 ft | 344 kts | 277° |
| 2026-04-22 17:55 | -10.13327 | -67.06837 | 23768 ft | 344 kts | 277° |
| 2026-04-22 17:55 | -10.13153 | -67.09252 | 23294 ft | 345 kts | 277° |
| 2026-04-22 17:55 | -10.12979 | -67.11661 | 22822 ft | 345 kts | 277° |
| 2026-04-22 17:56 | -10.12805 | -67.14064 | 22430 ft | 341 kts | 277° |
| 2026-04-22 17:56 | -10.12635 | -67.16429 | 22044 ft | 335 kts | 276° |
| 2026-04-22 17:56 | -10.12464 | -67.18787 | 21607 ft | 331 kts | 276° |
| 2026-04-22 17:56 | -10.12298 | -67.21075 | 21181 ft | 327 kts | 276° |
| 2026-04-22 17:57 | -10.12130 | -67.23387 | 20746 ft | 324 kts | 276° |
| 2026-04-22 17:57 | -10.11967 | -67.25638 | 20320 ft | 322 kts | 276° |
| 2026-04-22 17:57 | -10.11802 | -67.27903 | 19888 ft | 319 kts | 276° |
| 2026-04-22 17:57 | -10.11639 | -67.30138 | 19459 ft | 317 kts | 276° |
| 2026-04-22 17:58 | -10.11481 | -67.32310 | 19040 ft | 315 kts | 276° |
| 2026-04-22 17:58 | -10.11322 | -67.34497 | 18617 ft | 314 kts | 276° |
| 2026-04-22 17:58 | -10.11160 | -67.36710 | 18187 ft | 312 kts | 276° |
| 2026-04-22 17:58 | -10.11001 | -67.38886 | 17769 ft | 311 kts | 276° |
| 2026-04-22 17:59 | -10.10843 | -67.41049 | 17370 ft | 309 kts | 276° |
| 2026-04-22 17:59 | -10.10684 | -67.43215 | 16967 ft | 307 kts | 276° |
| 2026-04-22 17:59 | -10.10526 | -67.45377 | 16563 ft | 306 kts | 276° |
| 2026-04-22 17:59 | -10.10370 | -67.47501 | 16165 ft | 304 kts | 276° |
| 2026-04-22 18:00 | -10.10265 | -67.48937 | 15895 ft | 304 kts | 276° |
| 2026-04-22 18:00 | -10.10055 | -67.51795 | 15357 ft | 302 kts | 276° |
| 2026-04-22 18:00 | -10.09898 | -67.53931 | 14953 ft | 301 kts | 276° |
| 2026-04-22 18:00 | -10.09744 | -67.56025 | 14557 ft | 301 kts | 276° |
| 2026-04-22 18:01 | -10.09588 | -67.58140 | 14146 ft | 299 kts | 275° |
| 2026-04-22 18:01 | -10.09434 | -67.60231 | 13802 ft | 293 kts | 275° |
| 2026-04-22 18:01 | -10.09283 | -67.62284 | 13556 ft | 293 kts | 275° |
| 2026-04-22 18:01 | -10.09131 | -67.64334 | 13306 ft | 293 kts | 275° |
| 2026-04-22 18:02 | -10.08977 | -67.66420 | 13052 ft | 292 kts | 276° |
| 2026-04-22 18:02 | -10.08825 | -67.68471 | 12802 ft | 292 kts | 275° |
| 2026-04-22 18:02 | -10.08674 | -67.70519 | 12458 ft | 288 kts | 275° |
| 2026-04-22 18:02 | -10.08524 | -67.72541 | 12073 ft | 285 kts | 275° |
| 2026-04-22 18:03 | -10.08377 | -67.74519 | 11712 ft | 282 kts | 275° |
| 2026-04-22 18:03 | -10.08230 | -67.76511 | 11356 ft | 279 kts | 275° |
| 2026-04-22 18:03 | -10.08086 | -67.78445 | 11007 ft | 277 kts | 275° |
| 2026-04-22 18:03 | -10.07940 | -67.80418 | 10648 ft | 275 kts | 275° |
| 2026-04-22 18:04 | -10.07797 | -67.82331 | 10299 ft | 273 kts | 275° |
| 2026-04-22 18:04 | -10.07655 | -67.84243 | 9947 ft | 271 kts | 275° |
| 2026-04-22 18:04 | -10.07512 | -67.86157 | 9592 ft | 268 kts | 275° |
| 2026-04-22 18:04 | -10.07374 | -67.88013 | 9240 ft | 264 kts | 275° |
| 2026-04-22 18:05 | -10.07236 | -67.89866 | 8884 ft | 261 kts | 275° |
| 2026-04-22 18:05 | -10.07100 | -67.91686 | 8530 ft | 258 kts | 275° |
| 2026-04-22 18:05 | -10.06965 | -67.93492 | 8176 ft | 255 kts | 275° |
| 2026-04-22 18:05 | -10.06832 | -67.95272 | 7824 ft | 253 kts | 275° |
| 2026-04-22 18:06 | -10.06701 | -67.97024 | 7416 ft | 251 kts | 275° |
| 2026-04-22 18:06 | -10.06568 | -67.98789 | 6864 ft | 253 kts | 275° |
| 2026-04-22 18:06 | -10.06403 | -68.00500 | 6197 ft | 239 kts | 285° |
| 2026-04-22 18:06 | -10.05519 | -68.01895 | 5597 ft | 240 kts | 323° |
| 2026-04-22 18:07 | -10.04006 | -68.02535 | 5020 ft | 242 kts | 345° |
| 2026-04-22 18:07 | -10.02370 | -68.02982 | 4404 ft | 247 kts | 345° |
| 2026-04-22 18:07 | -10.00694 | -68.03398 | 3826 ft | 248 kts | 349° |
| 2026-04-22 18:07 | -9.99024 | -68.03274 | 3430 ft | 240 kts | 13° |
| 2026-04-22 18:08 | -9.97377 | -68.02895 | 3258 ft | 243 kts | 12° |
| 2026-04-22 18:08 | -9.95721 | -68.02519 | 3103 ft | 242 kts | 12° |
| 2026-04-22 18:08 | -9.94258 | -68.01919 | 3065 ft | 212 kts | 38° |
| 2026-04-22 18:08 | -9.93511 | -68.00735 | 2898 ft | 190 kts | 69° |
| 2026-04-22 18:09 | -9.93189 | -67.99470 | 2684 ft | 184 kts | 69° |
| 2026-04-22 18:09 | -9.92603 | -67.98332 | 2477 ft | 181 kts | 59° |
| 2026-04-22 18:09 | -9.91944 | -67.97261 | 2250 ft | 172 kts | 57° |
| 2026-04-22 18:09 | -9.91329 | -67.96298 | 2027 ft | 158 kts | 57° |
| 2026-04-22 18:10 | -9.90744 | -67.95383 | 1825 ft | 152 kts | 57° |
| 2026-04-22 18:10 | -9.90169 | -67.94487 | 1626 ft | 147 kts | 57° |
| 2026-04-22 18:10 | -9.89621 | -67.93637 | 1436 ft | 143 kts | 57° |
| 2026-04-22 18:10 | -9.89080 | -67.92793 | 1248 ft | 140 kts | 57° |
| 2026-04-22 18:11 | -9.88555 | -67.91974 | 1066 ft | 138 kts | 57° |
| 2026-04-22 18:11 | -9.88030 | -67.91159 | 868 ft | 138 kts | 57° |
| 2026-04-22 18:11 | -9.87512 | -67.90346 | 685 ft | 137 kts | 57° |
| 2026-04-22 18:11 | -9.87007 | -67.89560 | 617 ft | 122 kts | 57° |
| 2026-04-22 18:12 | -9.86628 | -67.88959 | 607 ft | 57 kts | 56° |
| 2026-04-22 18:12 | -9.86478 | -67.88724 | 604 ft | 30 kts | 57° |
| 2026-04-22 18:12 | -9.86401 | -67.88630 | 603 ft | 20 kts | 22° |
| 2026-04-22 18:12 | -9.86394 | -67.88602 | 602 ft | 1 kts | 219° |
| 2026-04-22 18:13 | -9.86399 | -67.88607 | 602 ft | 1 kts | 223° |
| 2026-04-22 18:13 | -9.86408 | -67.88615 | 603 ft | 2 kts | 223° |
| 2026-04-22 18:13 | -9.86424 | -67.88630 | 603 ft | 3 kts | 223° |
| 2026-04-22 18:13 | -9.86442 | -67.88648 | 603 ft | 2 kts | 233° |
| 2026-04-22 18:14 | -9.86455 | -67.88668 | 603 ft | 2 kts | 239° |
| 2026-04-22 18:14 | -9.86463 | -67.88685 | 604 ft | 3 kts | 248° |
| 2026-04-22 18:14 | -9.86476 | -67.88717 | 604 ft | 6 kts | 246° |
| 2026-04-22 18:14 | -9.86499 | -67.88769 | 605 ft | 9 kts | 245° |
| 2026-04-22 18:15 | -9.86534 | -67.88829 | 606 ft | 10 kts | 236° |
| 2026-04-22 18:15 | -9.86585 | -67.88906 | 607 ft | 15 kts | 236° |
| 2026-04-22 18:15 | -9.86652 | -67.89008 | 607 ft | 18 kts | 236° |
| 2026-04-22 18:15 | -9.86718 | -67.89106 | 608 ft | 16 kts | 236° |
| 2026-04-22 18:16 | -9.86777 | -67.89208 | 611 ft | 17 kts | 259° |
| 2026-04-22 18:16 | -9.86758 | -67.89328 | 613 ft | 17 kts | 282° |
| 2026-04-22 18:16 | -9.86734 | -67.89443 | 615 ft | 16 kts | 282° |
| 2026-04-22 18:16 | -9.86712 | -67.89564 | 613 ft | 17 kts | 268° |
| 2026-04-22 18:17 | -9.86693 | -67.89635 | 611 ft | 7 kts | 327° |
| 2026-04-22 18:17 | -9.86683 | -67.89641 | 610 ft | 0 kts | 327° |